createdAt,value
2023-04-02T00:00:04.371Z,70.35
2023-04-02T00:02:31.838Z,70.32
2023-04-02T00:05:18.204Z,70.59
2023-04-02T00:07:48.815Z,69.98
2023-04-02T00:10:50.936Z,69.77
2023-04-02T00:13:22.734Z,69.44
2023-04-02T00:15:50.052Z,69.49
2023-04-02T00:18:18.681Z,69.81
2023-04-02T00:20:51.260Z,69.69
2023-04-02T00:23:17.767Z,68.42
2023-04-02T00:25:45.476Z,69.71
2023-04-02T00:28:17.298Z,70.04
2023-04-02T00:30:54.263Z,69.67
2023-04-02T00:33:22.750Z,69.63
2023-04-02T00:35:50.593Z,68.96
2023-04-02T00:38:30.464Z,69.01
2023-04-02T00:40:58.509Z,68.86
2023-04-02T00:43:27.819Z,68.07
2023-04-02T00:45:56.084Z,68.04
2023-04-02T00:48:39.431Z,68.03
2023-04-02T00:51:24.870Z,68.86
2023-04-02T00:53:52.696Z,67.34
2023-04-02T00:56:32.133Z,67.26
2023-04-02T00:58:58.640Z,66.96
2023-04-02T01:01:27.838Z,67.77
2023-04-02T01:03:58.244Z,67.52
2023-04-02T01:06:29.585Z,67.90
2023-04-02T01:09:02.474Z,68.35
2023-04-02T01:11:47.558Z,68.05
2023-04-02T01:14:33.000Z,68.18
2023-04-02T01:17:15.521Z,68.72
2023-04-02T01:20:07.521Z,68.94
2023-04-02T01:22:55.343Z,68.73
2023-04-02T01:25:31.727Z,68.17
2023-04-02T01:28:05.028Z,67.65
2023-04-02T01:30:33.124Z,67.70
2023-04-02T01:32:59.642Z,68.22
2023-04-02T01:35:26.288Z,69.14
2023-04-02T01:38:06.458Z,69.71
2023-04-02T01:40:39.866Z,70.17
2023-04-02T01:43:39.358Z,71.59
2023-04-02T01:46:29.915Z,73.14
2023-04-02T01:48:56.941Z,73.72
2023-04-02T01:51:33.639Z,74.77
2023-04-02T01:54:01.810Z,75.05
2023-04-02T01:56:28.624Z,74.79
2023-04-02T01:58:56.792Z,74.83
2023-04-02T02:01:24.833Z,75.02
2023-04-02T02:03:51.400Z,74.85
2023-04-02T02:06:18.103Z,74.49
2023-04-02T02:08:56.456Z,74.73
2023-04-02T02:11:24.812Z,74.34
2023-04-02T02:13:55.038Z,74.16
2023-04-02T02:16:21.573Z,74.25
2023-04-02T02:18:52.206Z,73.97
2023-04-02T02:21:38.440Z,73.92
2023-04-02T02:24:05.180Z,74.11
2023-04-02T02:26:33.873Z,73.89
2023-04-02T02:29:00.484Z,74.38
2023-04-02T02:31:31.126Z,74.37
2023-04-02T02:34:09.140Z,74.73
2023-04-02T02:36:45.543Z,75.01
2023-04-02T02:39:42.412Z,75.48
2023-04-02T02:42:18.552Z,75.79
2023-04-02T02:44:49.168Z,76.36
2023-04-02T02:47:21.362Z,76.13
2023-04-02T02:49:49.985Z,75.38
2023-04-02T02:52:17.276Z,74.18
2023-04-02T02:54:47.168Z,74.49
2023-04-02T02:57:15.692Z,74.67
2023-04-02T02:59:42.359Z,74.34
2023-04-02T03:02:08.935Z,74.41
2023-04-02T03:04:35.784Z,74.59
2023-04-02T03:07:03.544Z,75.09
2023-04-02T03:09:47.116Z,76.19
2023-04-02T03:12:36.063Z,76.14
2023-04-02T03:15:19.217Z,76.52
2023-04-02T03:17:55.745Z,76.78
2023-04-02T03:20:28.339Z,77.15
2023-04-02T03:23:11.994Z,76.93
2023-04-02T03:25:41.691Z,76.77
2023-04-02T03:28:12.905Z,77.01
2023-04-02T03:30:47.363Z,77.03
2023-04-02T03:33:21.469Z,76.24
2023-04-02T03:36:10.750Z,75.58
2023-04-02T03:38:41.935Z,74.79
2023-04-02T03:41:13.535Z,74.92
2023-04-02T03:43:41.210Z,75.31
2023-04-02T03:46:24.829Z,75.89
2023-04-02T03:48:56.060Z,75.66
2023-04-02T03:51:50.814Z,76.07
2023-04-02T03:54:17.309Z,75.57
2023-04-02T03:56:43.766Z,75.93
2023-04-02T03:59:35.046Z,76.37
2023-04-02T04:02:50.040Z,76.54
2023-04-02T04:05:28.492Z,76.59
2023-04-02T04:07:59.746Z,76.29
2023-04-02T04:10:26.312Z,76.45
2023-04-02T04:12:54.491Z,76.67
2023-04-02T04:15:53.456Z,77.26
2023-04-02T04:18:44.758Z,77.25
2023-04-02T04:21:29.812Z,77.33
2023-04-02T04:23:57.966Z,77.56
2023-04-02T04:26:31.044Z,77.28
2023-04-02T04:29:22.224Z,77.29
2023-04-02T04:31:49.675Z,77.98
2023-04-02T04:34:27.170Z,78.12
2023-04-02T04:37:01.894Z,78.28
2023-04-02T04:39:45.895Z,78.88
2023-04-02T04:42:21.262Z,78.73
2023-04-02T04:45:12.663Z,78.99
2023-04-02T04:47:41.487Z,78.83
2023-04-02T04:50:17.652Z,79.29
2023-04-02T04:52:44.514Z,78.97
2023-04-02T04:55:26.264Z,79.50
2023-04-02T04:57:56.516Z,79.82
2023-04-02T05:00:27.386Z,79.98
2023-04-02T05:02:57.551Z,79.84
2023-04-02T05:05:29.639Z,79.72
2023-04-02T05:08:02.520Z,79.32
2023-04-02T05:10:54.748Z,79.18
2023-04-02T05:13:24.069Z,78.71
2023-04-02T05:16:26.256Z,78.93
2023-04-02T05:19:07.969Z,78.28
2023-04-02T05:21:43.992Z,78.04
2023-04-02T05:24:25.783Z,77.64
2023-04-02T05:26:52.360Z,77.23
2023-04-02T05:29:34.124Z,77.10
2023-04-02T05:32:09.337Z,76.72
2023-04-02T05:34:40.159Z,76.10
2023-04-02T05:37:09.102Z,75.91
2023-04-02T05:39:35.594Z,75.77
2023-04-02T05:42:06.461Z,75.36
2023-04-02T05:44:39.227Z,75.13
2023-04-02T05:47:08.738Z,75.19
2023-04-02T05:49:55.496Z,74.66
2023-04-02T05:52:23.960Z,74.24
2023-04-02T05:54:55.121Z,73.81
2023-04-02T05:57:39.556Z,73.43
2023-04-02T06:00:12.968Z,73.53
2023-04-02T06:02:41.366Z,71.00
2023-04-02T06:05:19.289Z,71.00
2023-04-02T06:08:08.588Z,71.94
2023-04-02T06:10:44.920Z,70.90
2023-04-02T06:13:12.101Z,69.59
2023-04-02T06:15:38.582Z,69.95
2023-04-02T06:18:11.431Z,70.75
2023-04-02T06:20:37.878Z,69.89
2023-04-02T06:23:44.131Z,69.40
2023-04-02T06:26:33.521Z,69.65
2023-04-02T06:29:01.595Z,70.36
2023-04-02T06:31:40.833Z,70.22
2023-04-02T06:34:11.428Z,70.94
2023-04-02T06:36:37.884Z,69.89
2023-04-02T06:39:06.983Z,70.26
2023-04-02T06:41:33.535Z,70.40
2023-04-02T06:44:15.851Z,68.74
2023-04-02T06:46:52.428Z,69.40
2023-04-02T06:49:31.267Z,68.62
2023-04-02T06:51:57.735Z,68.93
2023-04-02T06:54:24.220Z,68.19
2023-04-02T06:56:51.943Z,68.96
2023-04-02T06:59:18.644Z,68.51
2023-04-02T07:02:06.608Z,68.38
2023-04-02T07:04:33.295Z,67.89
2023-04-02T07:06:59.814Z,68.26
2023-04-02T07:09:26.669Z,68.92
2023-04-02T07:11:53.154Z,69.43
2023-04-02T07:14:19.616Z,68.91
2023-04-02T07:16:46.223Z,68.57
2023-04-02T07:19:20.424Z,67.96
2023-04-02T07:21:47.083Z,68.84
2023-04-02T07:24:13.582Z,68.95
2023-04-02T07:26:40.203Z,68.00
2023-04-02T07:29:08.036Z,67.68
2023-04-02T07:31:34.574Z,67.76
2023-04-02T07:34:01.375Z,66.63
2023-04-02T07:36:28.761Z,67.16
2023-04-02T07:38:55.218Z,66.48
2023-04-02T07:41:21.982Z,66.23
2023-04-02T07:43:48.485Z,66.54
2023-04-02T07:46:16.732Z,65.61
2023-04-02T07:48:43.990Z,64.88
2023-04-02T07:51:20.518Z,64.09
2023-04-02T07:53:50.227Z,62.60
2023-04-02T07:56:19.386Z,63.37
2023-04-02T07:58:45.914Z,63.32
2023-04-02T08:01:25.706Z,63.24
2023-04-02T08:03:54.468Z,63.63
2023-04-02T08:06:21.575Z,63.65
2023-04-02T08:08:48.118Z,62.36
2023-04-02T08:11:14.586Z,62.76
2023-04-02T08:13:41.361Z,63.27
2023-04-02T08:16:08.237Z,61.29
2023-04-02T08:18:34.883Z,62.39
2023-04-02T08:21:01.369Z,61.89
2023-04-02T08:23:28.198Z,62.12
2023-04-02T08:25:54.825Z,62.17
2023-04-02T08:28:21.421Z,62.81
2023-04-02T08:30:49.190Z,61.54
2023-04-02T08:33:16.609Z,59.86
2023-04-02T08:35:43.175Z,61.52
2023-04-02T08:38:14.638Z,59.42
2023-04-02T08:40:42.712Z,57.31
2023-04-02T08:43:18.361Z,59.08
2023-04-02T08:45:51.353Z,56.24
2023-04-02T08:48:17.989Z,56.57
2023-04-02T08:50:44.615Z,55.77
2023-04-02T08:53:15.876Z,56.01
2023-04-02T08:55:55.793Z,54.51
2023-04-02T08:58:39.488Z,55.26
2023-04-02T09:01:06.029Z,51.72
2023-04-02T09:03:40.283Z,51.02
2023-04-02T09:06:07.511Z,51.23
2023-04-02T09:08:35.496Z,48.23
2023-04-02T09:11:27.447Z,47.92
2023-04-02T09:13:58.355Z,46.78
2023-04-02T09:16:34.806Z,46.28
2023-04-02T09:19:02.125Z,45.74
2023-04-02T09:21:35.815Z,46.96
2023-04-02T09:24:03.957Z,46.88
2023-04-02T09:26:32.407Z,46.91
2023-04-02T09:29:08.105Z,47.52
2023-04-02T09:31:37.599Z,46.07
2023-04-02T09:34:28.612Z,45.16
2023-04-02T09:36:55.422Z,44.57
2023-04-02T09:39:23.463Z,44.65
2023-04-02T09:42:02.861Z,41.86
2023-04-02T09:44:32.384Z,42.82
2023-04-02T09:47:03.957Z,40.02
2023-04-02T09:49:36.111Z,41.44
2023-04-02T09:52:21.804Z,42.98
2023-04-02T09:55:14.507Z,43.21
2023-04-02T09:57:41.218Z,44.44
2023-04-02T10:02:43.358Z,47.21
2023-04-02T10:05:30.106Z,47.30
2023-04-02T10:08:19.780Z,48.98
2023-04-02T10:10:50.792Z,47.87
2023-04-02T10:13:46.392Z,47.55
2023-04-02T10:16:14.616Z,48.16
2023-04-02T10:18:44.008Z,49.29
2023-04-02T10:21:12.092Z,48.58
2023-04-02T10:23:38.565Z,47.66
2023-04-02T10:26:27.373Z,46.65
2023-04-02T10:29:12.548Z,44.06
2023-04-02T10:31:47.149Z,43.41
2023-04-02T10:34:37.792Z,42.03
2023-04-02T10:37:22.966Z,38.74
2023-04-02T10:39:58.421Z,40.39
2023-04-02T10:42:33.604Z,42.66
2023-04-02T10:45:19.993Z,46.22
2023-04-02T10:47:52.021Z,46.41
2023-04-02T10:50:39.703Z,46.84
2023-04-02T10:53:17.326Z,46.86
2023-04-02T10:55:45.712Z,45.82
2023-04-02T10:58:31.718Z,44.65
2023-04-02T11:01:04.287Z,41.00
2023-04-02T11:03:43.734Z,41.22
2023-04-02T11:06:22.993Z,39.36
2023-04-02T11:08:51.258Z,37.77
2023-04-02T11:11:22.559Z,40.15
2023-04-02T11:14:03.297Z,39.41
2023-04-02T11:16:30.064Z,39.79
2023-04-02T11:19:14.807Z,38.29
2023-04-02T11:21:57.986Z,31.58
2023-04-02T11:24:32.862Z,30.91
2023-04-02T11:27:06.872Z,31.52
2023-04-02T11:29:34.588Z,28.87
2023-04-02T11:32:27.328Z,28.65
2023-04-02T11:35:05.796Z,31.46
2023-04-02T11:37:39.914Z,33.66
2023-04-02T11:40:13.815Z,35.96
2023-04-02T11:42:41.189Z,35.21
2023-04-02T11:45:28.727Z,36.62
2023-04-02T11:48:01.429Z,39.99
2023-04-02T11:50:32.882Z,41.02
2023-04-02T11:53:12.182Z,43.38
2023-04-02T11:55:42.946Z,42.72
2023-04-02T11:58:21.030Z,44.28
2023-04-02T12:01:15.404Z,44.56
2023-04-02T12:04:07.845Z,45.63
2023-04-02T12:06:46.866Z,44.73
2023-04-02T12:09:24.278Z,44.20
2023-04-02T12:11:52.060Z,43.40
2023-04-02T12:14:46.320Z,40.87
2023-04-02T12:17:32.122Z,39.90
2023-04-02T12:20:10.633Z,36.81
2023-04-02T12:22:41.370Z,34.22
2023-04-02T12:25:31.666Z,32.73
2023-04-02T12:28:10.278Z,32.82
2023-04-02T12:30:37.795Z,34.05
2023-04-02T12:33:20.114Z,30.91
2023-04-02T12:35:47.081Z,29.73
2023-04-02T12:38:28.051Z,29.82
2023-04-02T12:41:03.698Z,31.45
2023-04-02T12:43:31.775Z,30.83
2023-04-02T12:46:00.256Z,32.46
2023-04-02T12:48:27.286Z,33.83
2023-04-02T12:50:53.916Z,34.97
2023-04-02T12:53:26.261Z,34.23
2023-04-02T12:55:52.938Z,34.60
2023-04-02T12:58:26.670Z,34.73
2023-04-02T13:00:53.179Z,35.72
2023-04-02T13:03:21.392Z,35.94
2023-04-02T13:05:52.510Z,36.29
2023-04-02T13:08:30.012Z,36.55
2023-04-02T13:10:58.472Z,37.21
2023-04-02T13:13:35.831Z,37.76
2023-04-02T13:16:03.573Z,37.42
2023-04-02T13:18:30.297Z,37.08
2023-04-02T13:21:01.115Z,33.43
2023-04-02T13:23:27.595Z,30.16
2023-04-02T13:25:54.082Z,26.12
2023-04-02T13:28:20.828Z,25.53
2023-04-02T13:30:47.379Z,27.71
2023-04-02T13:33:14.571Z,29.32
2023-04-02T13:35:41.623Z,30.35
2023-04-02T13:38:08.642Z,31.37
2023-04-02T13:40:36.439Z,31.43
2023-04-02T13:43:04.018Z,32.12
2023-04-02T13:45:39.716Z,32.69
2023-04-02T13:48:07.197Z,32.84
2023-04-02T13:50:34.746Z,32.35
2023-04-02T13:53:05.985Z,33.15
2023-04-02T13:55:36.586Z,33.30
2023-04-02T13:58:03.554Z,33.15
2023-04-02T14:00:30.245Z,33.16
2023-04-02T14:03:02.942Z,32.66
2023-04-02T14:05:38.234Z,33.34
2023-04-02T14:08:08.957Z,32.96
2023-04-02T14:10:54.217Z,33.24
2023-04-02T14:13:57.894Z,33.63
2023-04-02T14:16:50.606Z,34.54
2023-04-02T14:19:50.925Z,35.95
2023-04-02T14:22:21.512Z,36.01
2023-04-02T14:24:50.859Z,36.37
2023-04-02T14:27:29.428Z,36.70
2023-04-02T14:30:06.496Z,36.66
2023-04-02T14:33:10.535Z,35.13
2023-04-02T14:35:45.011Z,34.40
2023-04-02T14:38:33.120Z,33.02
2023-04-02T14:41:22.069Z,28.99
2023-04-02T14:43:53.299Z,22.40
2023-04-02T14:46:19.854Z,19.43
2023-04-02T14:48:51.174Z,16.13
2023-04-02T14:51:29.474Z,14.19
2023-04-02T14:54:12.378Z,12.68
2023-04-02T14:56:53.941Z,11.45
2023-04-02T14:59:29.392Z,11.21
2023-04-02T15:02:06.775Z,10.26
2023-04-02T15:04:37.094Z,10.71
2023-04-02T15:07:07.613Z,11.13
2023-04-02T15:09:38.022Z,10.80
2023-04-02T15:12:09.418Z,10.08
2023-04-02T15:14:42.425Z,10.00
2023-04-02T15:17:12.097Z,10.34
2023-04-02T15:19:38.577Z,10.05
2023-04-02T15:22:17.069Z,10.07
2023-04-02T15:25:21.993Z,9.91
2023-04-02T15:27:58.003Z,9.36
2023-04-02T15:30:44.666Z,9.38
2023-04-02T15:33:37.478Z,10.14
2023-04-02T15:36:16.146Z,9.82
2023-04-02T15:38:52.211Z,9.55
2023-04-02T15:41:26.231Z,9.60
2023-04-02T15:44:06.987Z,9.66
2023-04-02T15:46:50.685Z,9.72
2023-04-02T15:49:41.728Z,9.36
2023-04-02T15:52:09.702Z,9.54
2023-04-02T15:54:54.871Z,9.96
2023-04-02T15:57:46.957Z,9.57
2023-04-02T16:00:30.480Z,9.55
2023-04-02T16:03:12.198Z,9.52
2023-04-02T16:05:58.471Z,10.01
2023-04-02T16:08:34.027Z,11.99
2023-04-02T16:11:00.557Z,14.66
2023-04-02T16:13:31.504Z,16.55
2023-04-02T16:16:04.026Z,18.35
2023-04-02T16:18:38.369Z,20.73
2023-04-02T16:21:04.920Z,22.12
2023-04-02T16:23:36.237Z,23.97
2023-04-02T16:26:10.544Z,25.36
2023-04-02T16:28:42.677Z,27.18
2023-04-02T16:31:25.950Z,28.59
2023-04-02T16:34:05.255Z,30.18
2023-04-02T16:37:01.173Z,31.70
2023-04-02T16:39:46.231Z,32.75
2023-04-02T16:42:34.292Z,36.32
2023-04-02T16:45:13.536Z,39.65
2023-04-02T16:47:47.654Z,42.42
2023-04-02T16:50:20.816Z,45.72
2023-04-02T16:53:30.734Z,49.00
2023-04-02T16:56:06.204Z,50.17
2023-04-02T16:58:54.247Z,51.47
2023-04-02T17:01:33.002Z,52.98
2023-04-02T17:04:20.305Z,53.70
2023-04-02T17:06:57.130Z,54.44
2023-04-02T17:09:26.529Z,53.55
2023-04-02T17:11:55.544Z,54.40
2023-04-02T17:14:23.466Z,56.71
2023-04-02T17:16:51.829Z,56.77
2023-04-02T17:19:18.851Z,57.72
2023-04-02T17:21:52.198Z,56.59
2023-04-02T17:24:32.283Z,58.36
2023-04-02T17:27:00.947Z,58.82
2023-04-02T17:29:32.767Z,58.67
2023-04-02T17:32:01.406Z,60.85
2023-04-02T17:34:28.388Z,60.50
2023-04-02T17:37:22.562Z,60.23
2023-04-02T17:40:29.169Z,59.39
2023-04-02T17:43:19.204Z,58.29
2023-04-02T17:45:51.746Z,57.85
2023-04-02T17:48:41.300Z,59.55
2023-04-02T17:51:30.553Z,60.18
2023-04-02T17:54:00.300Z,60.04
2023-04-02T17:56:29.383Z,61.48
2023-04-02T17:59:33.485Z,64.26
2023-04-02T18:02:31.104Z,65.87
2023-04-02T18:05:06.993Z,66.23
2023-04-02T18:07:43.129Z,66.28
2023-04-02T18:10:19.938Z,66.00
2023-04-02T18:13:20.557Z,67.25
2023-04-02T18:15:49.934Z,66.32
2023-04-02T18:18:19.270Z,66.61
2023-04-02T18:21:06.732Z,67.00
2023-04-02T18:23:50.591Z,66.66
2023-04-02T18:26:34.020Z,66.59
2023-04-02T18:29:24.805Z,67.08
2023-04-02T18:31:57.376Z,66.96
2023-04-02T18:34:26.523Z,68.13
2023-04-02T18:37:16.392Z,67.48
2023-04-02T18:40:06.557Z,68.20
2023-04-02T18:42:36.092Z,67.60
2023-04-02T18:45:05.946Z,67.96
2023-04-02T18:47:37.490Z,67.56
2023-04-02T18:50:21.863Z,67.16
2023-04-02T18:52:48.636Z,65.99
2023-04-02T18:55:27.175Z,66.23
2023-04-02T18:58:04.370Z,66.01
2023-04-02T19:00:33.727Z,65.76
2023-04-02T19:03:10.643Z,67.30
2023-04-02T19:05:44.821Z,67.54
2023-04-02T19:08:16.593Z,67.45
2023-04-02T19:10:47.598Z,67.81
2023-04-02T19:13:15.786Z,67.66
2023-04-02T19:15:48.221Z,67.52
2023-04-02T19:18:47.136Z,66.85
2023-04-02T19:21:26.643Z,66.98
2023-04-02T19:23:52.991Z,66.85
2023-04-02T19:26:22.745Z,66.31
2023-04-02T19:29:15.544Z,65.83
2023-04-02T19:31:53.219Z,66.19
2023-04-02T19:34:33.823Z,66.66
2023-04-02T19:37:12.510Z,65.84
2023-04-02T19:39:39.572Z,66.12
2023-04-02T19:42:14.551Z,66.01
2023-04-02T19:44:43.026Z,67.11
2023-04-02T19:47:10.398Z,67.90
2023-04-02T19:49:37.037Z,67.84
2023-04-02T19:52:03.557Z,66.92
2023-04-02T19:54:30.298Z,68.15
2023-04-02T19:56:56.798Z,67.49
2023-04-02T19:59:23.379Z,67.77
2023-04-02T20:01:49.872Z,68.33
2023-04-02T20:04:16.405Z,68.78
2023-04-02T20:06:42.998Z,68.64
2023-04-02T20:09:09.584Z,69.04
2023-04-02T20:11:36.998Z,69.23
2023-04-02T20:14:03.571Z,69.30
2023-04-02T20:16:30.315Z,69.89
2023-04-02T20:18:57.130Z,70.10
2023-04-02T20:21:23.636Z,70.61
2023-04-02T20:23:53.585Z,70.15
2023-04-02T20:26:22.646Z,70.32
2023-04-02T20:28:49.583Z,70.35
2023-04-02T20:31:17.271Z,70.46
2023-04-02T20:33:44.645Z,71.02
2023-04-02T20:36:13.640Z,70.46
2023-04-02T20:38:40.192Z,70.80
2023-04-02T20:41:07.076Z,70.79
2023-04-02T20:43:33.934Z,70.19
2023-04-02T20:46:03.651Z,70.06
2023-04-02T20:48:33.153Z,69.89
2023-04-02T20:51:00.173Z,69.32
2023-04-02T20:53:29.411Z,68.88
2023-04-02T20:56:12.353Z,68.33
2023-04-02T20:58:39.133Z,68.82
2023-04-02T21:01:19.767Z,68.70
2023-04-02T21:03:46.308Z,68.46
2023-04-02T21:06:14.015Z,67.63
2023-04-02T21:08:40.716Z,66.78
2023-04-02T21:11:07.416Z,67.56
2023-04-02T21:13:36.075Z,68.17
2023-04-02T21:16:06.693Z,68.55
2023-04-02T21:18:33.175Z,68.62
2023-04-02T21:21:04.890Z,69.00
2023-04-02T21:23:31.986Z,68.58
2023-04-02T21:25:59.505Z,68.50
2023-04-02T21:28:26.127Z,69.27
2023-04-02T21:30:52.634Z,70.30
2023-04-02T21:33:19.107Z,70.46
2023-04-02T21:35:45.741Z,70.68
2023-04-02T21:38:12.363Z,69.85
2023-04-02T21:40:38.866Z,70.08
2023-04-02T21:43:05.321Z,69.96
2023-04-02T21:45:31.834Z,70.65
2023-04-02T21:47:58.314Z,69.80
2023-04-02T21:50:24.840Z,70.82
2023-04-02T21:52:51.467Z,70.97
2023-04-02T21:55:17.922Z,71.10
2023-04-02T21:57:44.441Z,71.36
2023-04-02T22:00:13.634Z,70.06
2023-04-02T22:02:40.399Z,69.38
2023-04-02T22:05:07.409Z,68.76
2023-04-02T22:07:33.905Z,69.01
2023-04-02T22:10:00.441Z,68.20
2023-04-02T22:12:26.914Z,68.07
2023-04-02T22:14:53.429Z,66.76
2023-04-02T22:17:19.915Z,66.56
2023-04-02T22:19:46.373Z,67.64
2023-04-02T22:22:12.910Z,66.86
2023-04-02T22:24:39.377Z,67.53
2023-04-02T22:27:05.844Z,65.55
2023-04-02T22:29:32.412Z,65.75
2023-04-02T22:31:58.932Z,65.80
2023-04-02T22:34:25.387Z,66.34
2023-04-02T22:36:52.998Z,66.71
2023-04-02T22:39:19.491Z,65.32
2023-04-02T22:41:46.346Z,66.59
2023-04-02T22:44:13.753Z,65.36
2023-04-02T22:46:40.484Z,66.56
2023-04-02T22:49:07.086Z,66.10
2023-04-02T22:51:33.645Z,66.64
2023-04-02T22:54:00.223Z,66.52
2023-04-02T22:56:29.565Z,67.66
2023-04-02T22:58:56.136Z,67.35
2023-04-02T23:01:24.903Z,67.24
2023-04-02T23:03:53.011Z,67.08
2023-04-02T23:06:19.683Z,66.95
2023-04-02T23:08:46.679Z,67.00
2023-04-02T23:11:23.481Z,66.59
2023-04-02T23:13:51.795Z,66.06
2023-04-02T23:16:18.357Z,66.53
2023-04-02T23:18:47.244Z,66.78
2023-04-02T23:21:13.800Z,65.77
2023-04-02T23:23:40.315Z,65.50
2023-04-02T23:26:07.769Z,65.72
2023-04-02T23:28:34.530Z,66.59
2023-04-02T23:31:01.907Z,65.42
2023-04-02T23:33:28.541Z,65.47
2023-04-02T23:35:55.053Z,65.97
2023-04-02T23:38:21.564Z,65.92
2023-04-02T23:40:48.035Z,66.31
2023-04-02T23:43:14.650Z,66.06
2023-04-02T23:45:41.274Z,66.53
2023-04-02T23:48:07.796Z,66.24
2023-04-02T23:50:34.611Z,66.65
2023-04-02T23:53:01.267Z,67.41
2023-04-02T23:55:27.764Z,66.95
2023-04-02T23:57:54.254Z,66.61
